Time;durP1;ratioP1;P1;durP2;ratioP2;P2;SDS_P1;SDS_P2;PMS_P1;PMS_P2;Temp;Humidity;BMP_temperature;BMP_pressure;BME280_temperature;BME280_humidity;BME280_pressure;Samples;Min_cycle;Max_cycle;Signal;HPM_P1;HPM_P2
2022/05/30 00:03:46;;;;;;;;;;;16.50;61.50;;;;;;20986267;28;20003;-74
2022/05/30 00:13:46;;;;;;;;;;;16.50;61.50;;;;;;20968840;28;19916;-75
2022/05/30 00:23:47;;;;;;;;;;;16.50;61.40;;;;;;20969464;28;19920;-74
2022/05/30 00:33:48;;;;;;;;;;;16.60;61.40;;;;;;20985362;28;20348;-75
2022/05/30 00:43:48;;;;;;;;;;;16.50;61.30;;;;;;20983496;28;19947;-74
2022/05/30 00:53:49;;;;;;;;;;;16.50;61.30;;;;;;20970834;28;19912;-74
2022/05/30 01:14:16;;;;;;;;;;;16.50;61.10;;;;;;20967310;28;20360;-74
2022/05/30 01:24:37;;;;;;;;;;;16.50;61.10;;;;;;20964119;28;19920;-75
2022/05/30 01:35:01;;;;;;;;;;;16.50;61.00;;;;;;20968827;28;19984;-74
2022/05/30 01:45:07;;;;;;;;;;;16.40;61.00;;;;;;20962948;28;20019;-74
2022/05/30 01:55:08;;;;;;;;;;;16.40;61.00;;;;;;20961306;28;19912;-74
2022/05/30 02:05:21;;;;;;;;;;;16.40;60.90;;;;;;20963017;28;19920;-74
2022/05/30 02:15:21;;;;;;;;;;;16.40;60.90;;;;;;20958667;28;19985;-74
2022/05/30 02:25:26;;;;;;;;;;;16.40;60.90;;;;;;20975768;28;20368;-74
2022/05/30 02:45:46;;;;;;;;;;;16.40;60.80;;;;;;20959181;28;19916;-74
2022/05/30 02:55:47;;;;;;;;;;;16.40;60.80;;;;;;20945016;28;19913;-75
2022/05/30 03:05:48;;;;;;;;;;;16.40;60.80;;;;;;20964911;28;19916;-74
2022/05/30 03:15:49;;;;;;;;;;;16.40;60.70;;;;;;20955226;28;19918;-74
2022/05/30 03:25:49;;;;;;;;;;;16.40;60.80;;;;;;20969915;28;19916;-74
2022/05/30 03:35:50;;;;;;;;;;;16.50;60.90;;;;;;20953870;28;20287;-74
2022/05/30 03:46:17;;;;;;;;;;;16.30;60.70;;;;;;20960702;28;19974;-75
2022/05/30 03:56:18;;;;;;;;;;;16.40;60.80;;;;;;20971210;28;20269;-74
2022/05/30 04:06:18;;;;;;;;;;;16.30;60.70;;;;;;20970033;28;20081;-74
2022/05/30 04:16:19;;;;;;;;;;;16.40;60.80;;;;;;20968817;28;19912;-74
2022/05/30 04:26:21;;;;;;;;;;;16.30;60.70;;;;;;20968629;28;19945;-74
2022/05/30 04:36:25;;;;;;;;;;;16.30;60.70;;;;;;20952931;28;19912;-74
2022/05/30 04:46:27;;;;;;;;;;;16.30;60.80;;;;;;20966608;28;19913;-76
2022/05/30 04:56:28;;;;;;;;;;;16.30;60.80;;;;;;20865821;28;19938;-74
2022/05/30 05:06:39;;;;;;;;;;;16.30;60.80;;;;;;20906615;28;19920;-77
2022/05/30 05:16:39;;;;;;;;;;;16.30;60.80;;;;;;20885812;28;20337;-76
2022/05/30 05:26:44;;;;;;;;;;;16.10;60.80;;;;;;20905049;28;19967;-81
2022/05/30 05:36:52;;;;;;;;;;;16.20;60.70;;;;;;20864948;28;19912;-76
2022/05/30 05:46:57;;;;;;;;;;;16.20;60.60;;;;;;20895478;28;20308;-80
2022/05/30 05:56:58;;;;;;;;;;;16.20;60.60;;;;;;20880216;28;19923;-80
2022/05/30 06:07:04;;;;;;;;;;;16.20;60.60;;;;;;20900936;28;19912;-81
2022/05/30 06:17:19;;;;;;;;;;;16.20;60.60;;;;;;20883375;28;19917;-79
2022/05/30 06:27:20;;;;;;;;;;;16.10;60.60;;;;;;20884502;28;19920;-77
2022/05/30 06:37:43;;;;;;;;;;;16.10;60.60;;;;;;20894140;28;19912;-78
2022/05/30 06:47:45;;;;;;;;;;;16.20;60.60;;;;;;20848500;28;19921;-78
2022/05/30 06:58:14;;;;;;;;;;;16.10;60.50;;;;;;20890191;28;19913;-77
2022/05/30 07:08:16;;;;;;;;;;;16.20;60.60;;;;;;20892154;28;20303;-76
2022/05/30 07:28:46;;;;;;;;;;;16.10;60.50;;;;;;20989031;22;20044;-77
2022/05/30 07:39:05;;;;;;;;;;;16.20;60.50;;;;;;20890672;28;20012;-77
2022/05/30 07:49:37;;;;;;;;;;;16.20;60.50;;;;;;20874961;28;19972;-82
2022/05/30 08:00:03;;;;;;;;;;;16.20;60.50;;;;;;20852426;28;20571;-78
2022/05/30 08:10:06;;;;;;;;;;;16.20;60.50;;;;;;20849934;28;19954;-78
2022/05/30 08:20:08;;;;;;;;;;;16.20;60.40;;;;;;20857693;28;20435;-77
2022/05/30 08:30:10;;;;;;;;;;;16.20;60.40;;;;;;20881997;28;19909;-77
2022/05/30 08:50:44;;;;;;;;;;;16.20;60.40;;;;;;20873606;28;19925;-79
2022/05/30 09:00:51;;;;;;;;;;;16.10;60.30;;;;;;20864105;28;19917;-78
2022/05/30 09:10:56;;;;;;;;;;;16.20;60.20;;;;;;20896078;28;19909;-76
2022/05/30 09:20:57;;;;;;;;;;;16.20;60.20;;;;;;20879718;28;20003;-75
2022/05/30 09:31:04;;;;;;;;;;;16.20;60.10;;;;;;20879089;28;19920;-75
2022/05/30 09:41:40;;;;;;;;;;;16.20;60.00;;;;;;20889854;28;19924;-79
2022/05/30 09:51:50;;;;;;;;;;;16.20;59.90;;;;;;20878322;28;20013;-77
2022/05/30 10:01:51;;;;;;;;;;;16.20;59.90;;;;;;20879687;28;19917;-80
2022/05/30 10:11:53;;;;;;;;;;;16.20;59.80;;;;;;20865207;28;19909;-81
2022/05/30 10:32:49;;;;;;;;;;;16.20;59.70;;;;;;20897424;28;19920;-78
2022/05/30 10:43:02;;;;;;;;;;;16.20;59.60;;;;;;20873727;28;19917;-76
2022/05/30 10:53:04;;;;;;;;;;;16.20;60.10;;;;;;20857493;28;19935;-75
2022/05/30 11:03:41;;;;;;;;;;;16.20;59.50;;;;;;20892487;28;19978;-75
2022/05/30 11:13:51;;;;;;;;;;;16.20;59.40;;;;;;20872132;28;19908;-76
2022/05/30 11:23:52;;;;;;;;;;;16.20;59.30;;;;;;20904693;28;19917;-76
2022/05/30 11:34:05;;;;;;;;;;;16.20;59.20;;;;;;20865995;28;19915;-76
2022/05/30 11:44:10;;;;;;;;;;;16.20;59.10;;;;;;20851559;28;19951;-76
2022/05/30 11:54:23;;;;;;;;;;;16.30;59.10;;;;;;20866881;28;19909;-78
2022/05/30 12:04:44;;;;;;;;;;;16.20;59.00;;;;;;20868739;28;19924;-77
2022/05/30 12:15:03;;;;;;;;;;;16.20;59.00;;;;;;20865944;28;20392;-76
2022/05/30 12:25:24;;;;;;;;;;;16.20;58.90;;;;;;20900881;28;19917;-76
2022/05/30 12:35:26;;;;;;;;;;;16.20;58.90;;;;;;20898549;28;19909;-77
2022/05/30 12:45:33;;;;;;;;;;;16.20;58.90;;;;;;20848820;28;19921;-73
2022/05/30 12:55:43;;;;;;;;;;;16.20;58.90;;;;;;20864854;28;20477;-74
2022/05/30 13:05:45;;;;;;;;;;;16.20;58.80;;;;;;20859984;28;19955;-74
2022/05/30 13:15:46;;;;;;;;;;;16.10;58.70;;;;;;20854194;28;20399;-74
2022/05/30 13:25:48;;;;;;;;;;;16.20;58.70;;;;;;20885870;28;19985;-75
2022/05/30 13:35:52;;;;;;;;;;;16.20;58.60;;;;;;20859998;28;19909;-72
2022/05/30 13:45:53;;;;;;;;;;;16.20;58.50;;;;;;20894083;28;20335;-73
2022/05/30 13:56:04;;;;;;;;;;;16.20;58.50;;;;;;20860949;28;20346;-73
2022/05/30 14:06:16;;;;;;;;;;;16.20;58.40;;;;;;20876210;28;20041;-72
2022/05/30 14:16:32;;;;;;;;;;;16.20;58.50;;;;;;20888635;28;19916;-75
2022/05/30 14:26:33;;;;;;;;;;;16.20;58.60;;;;;;20901627;28;20276;-75
2022/05/30 14:36:43;;;;;;;;;;;16.20;58.50;;;;;;20886424;28;19913;-74
2022/05/30 14:46:43;;;;;;;;;;;16.30;58.60;;;;;;20906215;28;19912;-74
2022/05/30 14:56:44;;;;;;;;;;;16.20;58.50;;;;;;20872047;28;19920;-74
2022/05/30 15:07:07;;;;;;;;;;;16.20;58.40;;;;;;20871987;28;19920;-75
2022/05/30 15:17:07;;;;;;;;;;;16.30;58.40;;;;;;20870600;28;19920;-73
2022/05/30 15:27:08;;;;;;;;;;;16.30;58.30;;;;;;20870597;28;20257;-72
2022/05/30 15:37:08;;;;;;;;;;;16.30;58.20;;;;;;20871020;28;20007;-71
2022/05/30 15:47:11;;;;;;;;;;;16.30;58.10;;;;;;20904165;28;19926;-70
2022/05/30 15:57:19;;;;;;;;;;;16.40;58.10;;;;;;20885929;28;19919;-71
2022/05/30 16:07:19;;;;;;;;;;;16.30;58.10;;;;;;20870770;28;20012;-70
2022/05/30 16:17:20;;;;;;;;;;;16.30;58.00;;;;;;20878814;28;19917;-71
2022/05/30 16:27:20;;;;;;;;;;;16.30;58.00;;;;;;20860162;28;19927;-74
2022/05/30 16:37:23;;;;;;;;;;;16.30;57.80;;;;;;20891838;28;20016;-74
2022/05/30 16:47:24;;;;;;;;;;;16.20;57.80;;;;;;20882274;28;19920;-76
2022/05/30 16:57:25;;;;;;;;;;;16.20;57.80;;;;;;20880641;28;19999;-75
2022/05/30 17:07:25;;;;;;;;;;;16.30;58.00;;;;;;20881386;28;20388;-77
2022/05/30 17:17:26;;;;;;;;;;;16.30;58.20;;;;;;20880186;28;19920;-74
2022/05/30 17:37:45;;;;;;;;;;;16.30;58.50;;;;;;20898260;28;20011;-76
2022/05/30 17:47:49;;;;;;;;;;;16.30;58.50;;;;;;20893353;28;20402;-75
2022/05/30 17:57:50;;;;;;;;;;;16.40;58.80;;;;;;20862326;28;19994;-76
2022/05/30 18:08:11;;;;;;;;;;;16.40;58.90;;;;;;20864177;28;19913;-76
2022/05/30 18:28:36;;;;;;;;;;;16.40;59.10;;;;;;20848145;28;19917;-75
2022/05/30 18:38:55;;;;;;;;;;;16.30;59.20;;;;;;20889198;28;20295;-73
2022/05/30 18:48:58;;;;;;;;;;;16.30;59.30;;;;;;20906200;28;19919;-75
2022/05/30 18:59:05;;;;;;;;;;;16.30;59.30;;;;;;20885538;28;20074;-76
2022/05/30 19:09:06;;;;;;;;;;;16.30;59.30;;;;;;20888653;28;19916;-76
2022/05/30 19:19:11;;;;;;;;;;;16.30;59.40;;;;;;20886537;28;19956;-76
2022/05/30 19:29:11;;;;;;;;;;;16.30;59.50;;;;;;20791935;28;20253;-74
2022/05/30 19:39:12;;;;;;;;;;;16.20;59.50;;;;;;20887902;28;19923;-74
2022/05/30 19:49:13;;;;;;;;;;;16.30;59.70;;;;;;20886692;28;19913;-76
2022/05/30 19:59:13;;;;;;;;;;;16.30;59.80;;;;;;20853040;28;19913;-76
2022/05/30 20:09:15;;;;;;;;;;;16.20;59.80;;;;;;20890339;28;19913;-77
2022/05/30 20:19:16;;;;;;;;;;;16.20;59.90;;;;;;20901806;28;19931;-77
2022/05/30 20:29:16;;;;;;;;;;;16.20;59.90;;;;;;20901666;28;20380;-77
2022/05/30 20:39:17;;;;;;;;;;;16.20;60.00;;;;;;20875305;28;19916;-77
2022/05/30 20:49:18;;;;;;;;;;;16.20;60.00;;;;;;20883575;28;20361;-76
2022/05/30 20:59:19;;;;;;;;;;;16.20;60.10;;;;;;20918020;28;19966;-77
2022/05/30 21:09:19;;;;;;;;;;;16.20;60.10;;;;;;20865977;28;20253;-77
2022/05/30 21:19:27;;;;;;;;;;;16.10;60.10;;;;;;20881309;28;19925;-77
2022/05/30 21:29:28;;;;;;;;;;;16.20;60.20;;;;;;20881464;28;19908;-77
2022/05/30 21:39:29;;;;;;;;;;;16.20;60.20;;;;;;20881524;28;19948;-77
2022/05/30 21:49:29;;;;;;;;;;;16.10;60.10;;;;;;20896911;28;20399;-77
2022/05/30 21:59:30;;;;;;;;;;;16.10;60.10;;;;;;20878881;28;19970;-77
2022/05/30 22:09:31;;;;;;;;;;;16.10;60.10;;;;;;20894795;28;19916;-77
2022/05/30 22:19:31;;;;;;;;;;;16.10;60.20;;;;;;20876747;28;19917;-77
2022/05/30 22:29:32;;;;;;;;;;;16.10;60.20;;;;;;20874232;28;19912;-77
2022/05/30 22:39:32;;;;;;;;;;;16.10;60.20;;;;;;20861553;28;20030;-77
2022/05/30 22:49:33;;;;;;;;;;;16.10;60.30;;;;;;20888331;28;19916;-77
2022/05/30 22:59:33;;;;;;;;;;;16.10;60.20;;;;;;20904983;28;19984;-77
2022/05/30 23:09:34;;;;;;;;;;;16.10;60.20;;;;;;20881661;28;20366;-77
2022/05/30 23:19:39;;;;;;;;;;;16.10;60.90;;;;;;20871500;28;19916;-77
2022/05/30 23:29:40;;;;;;;;;;;16.10;60.20;;;;;;20887794;28;20006;-77
2022/05/30 23:39:41;;;;;;;;;;;16.10;60.20;;;;;;20871829;28;19979;-77
2022/05/30 23:49:42;;;;;;;;;;;16.00;60.10;;;;;;20870333;28;19971;-77
2022/05/30 23:59:43;;;;;;;;;;;16.00;60.10;;;;;;20885983;28;19912;-77
